createdAt,value
2018-03-07T00:00:59.596Z,52.10
2018-03-07T00:01:59.749Z,52.50
2018-03-07T00:02:59.906Z,51.60
2018-03-07T00:04:00.058Z,51.40
2018-03-07T00:05:00.208Z,50.70
2018-03-07T00:06:00.362Z,54.10
2018-03-07T00:07:00.516Z,51.70
2018-03-07T00:08:00.672Z,55.70
2018-03-07T00:09:00.823Z,53.90
2018-03-07T00:10:00.980Z,52.40
2018-03-07T00:11:01.130Z,55.70
2018-03-07T00:12:01.289Z,51.90
2018-03-07T00:13:01.464Z,50.30
2018-03-07T00:14:01.628Z,51.10
2018-03-07T00:15:01.765Z,52.00
2018-03-07T00:16:01.919Z,55.80
2018-03-07T00:17:02.072Z,54.20
2018-03-07T00:18:02.239Z,54.70
2018-03-07T00:19:02.394Z,53.80
2018-03-07T00:20:02.535Z,55.70
2018-03-07T00:21:02.698Z,53.90
2018-03-07T00:22:02.843Z,60.50
2018-03-07T00:23:02.996Z,55.50
2018-03-07T00:24:03.151Z,54.90
2018-03-07T00:25:03.308Z,52.90
2018-03-07T00:26:03.458Z,54.40
2018-03-07T00:27:03.625Z,55.50
2018-03-07T00:28:03.776Z,54.20
2018-03-07T00:29:03.930Z,55.20
2018-03-07T00:30:04.097Z,54.10
2018-03-07T00:31:04.239Z,56.30
2018-03-07T00:32:04.393Z,56.30
2018-03-07T00:33:04.584Z,58.20
2018-03-07T00:34:04.700Z,59.80
2018-03-07T00:35:04.850Z,56.60
2018-03-07T00:36:05.007Z,55.50
2018-03-07T00:37:05.165Z,57.40
2018-03-07T00:38:05.310Z,55.00
2018-03-07T00:39:05.465Z,54.60
2018-03-07T00:40:05.622Z,55.20
2018-03-07T00:41:05.773Z,56.60
2018-03-07T00:42:05.925Z,58.30
2018-03-07T00:43:06.084Z,58.90
2018-03-07T00:44:06.246Z,54.00
2018-03-07T00:45:06.390Z,53.50
2018-03-07T00:46:06.534Z,55.20
2018-03-07T00:47:06.689Z,55.10
2018-03-07T00:48:06.858Z,53.50
2018-03-07T00:49:07.009Z,63.40
2018-03-07T00:50:07.173Z,55.80
2018-03-07T00:51:07.327Z,59.00
2018-03-07T00:52:07.487Z,56.20
2018-03-07T00:53:07.641Z,53.40
2018-03-07T00:54:07.801Z,53.10
2018-03-07T00:55:07.957Z,57.50
2018-03-07T00:56:08.102Z,60.30
2018-03-07T00:57:08.259Z,59.40
2018-03-07T00:58:08.412Z,59.00
2018-03-07T00:59:08.568Z,63.80
2018-03-07T01:00:08.768Z,55.80
2018-03-07T01:01:08.890Z,62.70
2018-03-07T01:02:09.038Z,58.80
2018-03-07T01:03:09.192Z,62.30
2018-03-07T01:04:09.354Z,59.70
2018-03-07T01:05:09.497Z,60.20
2018-03-07T01:06:09.651Z,56.70
2018-03-07T01:07:09.804Z,60.60
2018-03-07T01:08:09.959Z,59.00
2018-03-07T01:09:10.115Z,60.20
2018-03-07T01:10:10.266Z,64.40
2018-03-07T01:11:10.432Z,64.20
2018-03-07T01:12:10.572Z,58.20
2018-03-07T01:13:10.726Z,61.80
2018-03-07T01:14:10.880Z,60.30
2018-03-07T01:15:11.031Z,59.40
2018-03-07T01:16:11.183Z,55.80
2018-03-07T01:17:11.340Z,60.60
2018-03-07T01:18:11.498Z,62.40
2018-03-07T01:19:11.650Z,66.30
2018-03-07T01:20:11.799Z,59.40
2018-03-07T01:21:11.967Z,61.70
2018-03-07T01:22:12.087Z,60.90
2018-03-07T01:23:12.240Z,57.20
2018-03-07T01:24:12.394Z,56.90
2018-03-07T01:25:12.549Z,56.10
2018-03-07T01:26:12.704Z,57.50
2018-03-07T01:27:12.859Z,59.60
2018-03-07T01:28:13.007Z,59.50
2018-03-07T01:29:13.165Z,58.20
2018-03-07T01:30:13.318Z,56.70
2018-03-07T01:31:13.481Z,57.80
2018-03-07T01:32:13.616Z,55.30
2018-03-07T01:33:13.765Z,55.60
2018-03-07T01:34:13.923Z,61.20
2018-03-07T01:35:14.080Z,59.60
2018-03-07T01:36:14.224Z,63.90
2018-03-07T01:37:14.378Z,58.20
2018-03-07T01:38:14.531Z,61.50
2018-03-07T01:39:14.686Z,64.80
2018-03-07T01:40:14.836Z,61.70
2018-03-07T01:41:14.993Z,57.80
2018-03-07T01:42:15.154Z,58.90
2018-03-07T01:43:15.295Z,60.90
2018-03-07T01:44:15.453Z,62.00
2018-03-07T01:45:15.602Z,61.70
2018-03-07T01:46:15.769Z,58.30
2018-03-07T01:47:15.918Z,62.50
2018-03-07T01:48:16.080Z,59.30
2018-03-07T01:49:16.232Z,59.90
2018-03-07T01:50:16.388Z,61.80
2018-03-07T01:51:16.538Z,53.80
2018-03-07T01:52:16.691Z,56.90
2018-03-07T01:53:16.845Z,56.00
2018-03-07T01:54:16.998Z,62.10
2018-03-07T01:55:17.160Z,63.40
2018-03-07T01:56:17.314Z,61.90
2018-03-07T01:57:17.499Z,61.90
2018-03-07T01:58:17.621Z,55.20
2018-03-07T01:59:17.769Z,55.60
2018-03-07T02:00:17.921Z,57.90
2018-03-07T02:01:18.077Z,60.90
2018-03-07T02:02:18.229Z,62.00
2018-03-07T02:03:18.383Z,64.00
2018-03-07T02:04:18.528Z,62.50
2018-03-07T02:05:18.682Z,60.20
2018-03-07T02:06:18.835Z,60.80
2018-03-07T02:07:18.989Z,59.50
2018-03-07T02:08:19.142Z,60.40
2018-03-07T02:09:19.301Z,61.40
2018-03-07T02:11:19.612Z,56.70
2018-03-07T02:12:19.795Z,55.60
2018-03-07T02:13:19.908Z,57.40
2018-03-07T02:14:20.060Z,57.70
2018-03-07T02:15:20.212Z,58.30
2018-03-07T02:16:20.376Z,60.30
2018-03-07T02:17:20.528Z,58.90
2018-03-07T02:18:20.683Z,60.30
2018-03-07T02:19:20.844Z,54.90
2018-03-07T02:20:20.987Z,57.10
2018-03-07T02:21:21.138Z,57.50
2018-03-07T02:22:21.293Z,61.10
2018-03-07T02:23:21.452Z,58.20
2018-03-07T02:24:21.599Z,59.00
2018-03-07T02:25:21.762Z,59.20
2018-03-07T02:26:21.921Z,57.40
2018-03-07T02:27:22.063Z,62.10
2018-03-07T02:28:22.216Z,58.40
2018-03-07T02:29:22.372Z,59.60
2018-03-07T02:30:22.526Z,55.00
2018-03-07T02:31:22.679Z,63.00
2018-03-07T02:32:22.832Z,60.50
2018-03-07T02:33:23.002Z,60.70
2018-03-07T02:34:23.136Z,57.20
2018-03-07T02:35:23.291Z,57.40
2018-03-07T02:36:23.444Z,59.80
2018-03-07T02:37:23.599Z,54.80
2018-03-07T02:38:23.752Z,57.90
2018-03-07T02:39:23.907Z,56.50
2018-03-07T02:40:24.056Z,58.40
2018-03-07T02:41:24.206Z,58.80
2018-03-07T02:42:24.359Z,61.10
2018-03-07T02:43:24.513Z,59.10
2018-03-07T02:44:24.675Z,56.10
2018-03-07T02:45:24.833Z,61.90
2018-03-07T02:46:24.981Z,59.40
2018-03-07T02:47:25.140Z,60.10
2018-03-07T02:48:25.287Z,60.20
2018-03-07T02:49:25.440Z,59.00
2018-03-07T02:50:25.594Z,60.80
2018-03-07T02:51:25.747Z,61.40
2018-03-07T02:52:25.897Z,59.60
2018-03-07T02:53:26.056Z,64.30
2018-03-07T02:54:26.213Z,61.20
2018-03-07T02:55:26.372Z,63.20
2018-03-07T02:56:26.512Z,58.90
2018-03-07T02:57:26.665Z,59.70
2018-03-07T02:58:26.823Z,60.50
2018-03-07T02:59:26.983Z,56.20
2018-03-07T03:00:27.128Z,56.10
2018-03-07T03:01:27.315Z,55.30
2018-03-07T03:02:27.469Z,55.70
2018-03-07T03:03:27.623Z,56.50
2018-03-07T03:04:27.784Z,62.30
2018-03-07T03:05:27.933Z,60.70
2018-03-07T03:06:28.114Z,62.70
2018-03-07T03:07:28.267Z,63.10
2018-03-07T03:08:28.430Z,63.10
2018-03-07T03:09:28.577Z,59.60
2018-03-07T03:11:28.895Z,58.50
2018-03-07T03:12:29.039Z,59.90
2018-03-07T03:13:29.192Z,57.50
2018-03-07T03:14:29.347Z,54.80
2018-03-07T03:15:29.513Z,60.30
2018-03-07T03:16:29.661Z,58.30
2018-03-07T03:17:29.822Z,54.40
2018-03-07T03:18:29.980Z,56.60
2018-03-07T03:19:30.130Z,56.60
2018-03-07T03:20:30.273Z,58.50
2018-03-07T03:21:30.432Z,56.60
2018-03-07T03:22:30.584Z,62.00
2018-03-07T03:23:30.740Z,57.40
2018-03-07T03:24:30.899Z,60.70
2018-03-07T03:25:31.047Z,54.40
2018-03-07T03:26:31.204Z,55.00
2018-03-07T03:27:31.362Z,58.80
2018-03-07T03:28:31.509Z,52.30
2018-03-07T03:29:31.663Z,57.00
2018-03-07T03:30:31.823Z,60.30
2018-03-07T03:31:31.976Z,58.20
2018-03-07T03:32:32.128Z,60.00
2018-03-07T03:33:32.281Z,59.80
2018-03-07T03:34:32.438Z,59.00
2018-03-07T03:35:32.583Z,57.70
2018-03-07T03:36:32.737Z,60.40
2018-03-07T03:37:32.890Z,61.10
2018-03-07T03:38:33.045Z,53.90
2018-03-07T03:39:33.199Z,56.60
2018-03-07T03:40:33.353Z,56.20
2018-03-07T03:41:33.510Z,53.80
2018-03-07T03:42:33.656Z,56.50
2018-03-07T03:43:33.809Z,53.90
2018-03-07T03:44:33.962Z,57.20
2018-03-07T03:45:34.119Z,56.20
2018-03-07T03:46:34.272Z,55.80
2018-03-07T03:47:34.427Z,56.20
2018-03-07T03:48:34.584Z,57.30
2018-03-07T03:49:34.758Z,55.60
2018-03-07T03:50:34.880Z,60.20
2018-03-07T03:51:35.062Z,58.30
2018-03-07T03:52:35.177Z,55.80
2018-03-07T03:53:35.339Z,56.20
2018-03-07T03:54:35.481Z,52.90
2018-03-07T03:55:35.636Z,53.90
2018-03-07T03:56:35.790Z,54.70
2018-03-07T03:57:35.948Z,52.90
2018-03-07T03:58:36.100Z,55.50
2018-03-07T03:59:36.268Z,55.60
2018-03-07T04:00:36.418Z,57.80
2018-03-07T04:01:36.571Z,60.90
2018-03-07T04:02:36.732Z,57.00
2018-03-07T04:03:36.880Z,57.70
2018-03-07T04:04:37.028Z,55.90
2018-03-07T04:05:37.185Z,56.80
2018-03-07T04:06:37.342Z,59.00
2018-03-07T04:07:37.496Z,57.10
2018-03-07T04:08:37.650Z,54.90
2018-03-07T04:09:37.812Z,53.70
2018-03-07T04:10:37.953Z,55.00
2018-03-07T04:11:38.107Z,55.40
2018-03-07T04:12:38.260Z,52.10
2018-03-07T04:13:38.415Z,54.00
2018-03-07T04:14:38.567Z,55.60
2018-03-07T04:15:38.726Z,52.10
2018-03-07T04:16:38.894Z,56.60
2018-03-07T04:17:39.027Z,53.50
2018-03-07T04:18:39.180Z,52.40
2018-03-07T04:19:39.335Z,54.30
2018-03-07T04:20:39.489Z,54.30
2018-03-07T04:21:39.646Z,52.80
2018-03-07T04:22:39.808Z,55.40
2018-03-07T04:23:40.010Z,54.30
2018-03-07T04:24:40.114Z,48.90
2018-03-07T04:25:40.267Z,51.40
2018-03-07T04:26:40.419Z,56.00
2018-03-07T04:27:40.573Z,50.60
2018-03-07T04:28:40.728Z,50.10
2018-03-07T04:29:40.883Z,54.70
2018-03-07T04:30:41.039Z,55.90
2018-03-07T04:31:41.194Z,55.50
2018-03-07T04:32:41.358Z,56.70
2018-03-07T04:33:41.496Z,55.20
2018-03-07T04:34:41.650Z,53.40
2018-03-07T04:35:41.806Z,55.50
2018-03-07T04:36:41.962Z,51.80
2018-03-07T04:37:42.126Z,50.80
2018-03-07T04:38:42.261Z,51.40
2018-03-07T04:39:42.415Z,49.30
2018-03-07T04:40:42.590Z,51.60
2018-03-07T04:41:42.720Z,53.80
2018-03-07T04:42:42.875Z,56.70
2018-03-07T04:43:43.032Z,51.70
2018-03-07T04:44:43.184Z,56.20
2018-03-07T04:45:43.341Z,54.20
2018-03-07T04:46:43.498Z,54.30
2018-03-07T04:47:43.658Z,57.00
2018-03-07T04:48:43.787Z,54.30
2018-03-07T04:49:43.943Z,55.20
2018-03-07T04:50:44.097Z,56.60
2018-03-07T04:51:44.254Z,56.00
2018-03-07T04:52:44.397Z,55.30
2018-03-07T04:53:44.552Z,51.50
2018-03-07T04:54:44.708Z,52.60
2018-03-07T04:55:44.860Z,51.30
2018-03-07T04:56:45.015Z,56.00
2018-03-07T04:57:45.178Z,52.20
2018-03-07T04:58:45.331Z,54.40
2018-03-07T04:59:45.486Z,53.60
2018-03-07T05:00:45.644Z,51.20
2018-03-07T05:01:45.797Z,52.10
2018-03-07T05:02:45.992Z,50.20
2018-03-07T05:03:46.106Z,51.20
2018-03-07T05:04:46.265Z,53.40
2018-03-07T05:05:46.419Z,54.40
2018-03-07T05:06:46.582Z,51.70
2018-03-07T05:07:46.736Z,50.70
2018-03-07T05:08:46.900Z,51.60
2018-03-07T05:09:47.076Z,52.20
2018-03-07T05:10:47.194Z,50.40
2018-03-07T05:11:47.348Z,55.90
2018-03-07T05:12:47.502Z,54.30
2018-03-07T05:13:47.656Z,55.30
2018-03-07T05:14:47.810Z,53.60
2018-03-07T05:15:48.014Z,55.80
2018-03-07T05:16:48.168Z,53.10
2018-03-07T05:17:48.327Z,54.40
2018-03-07T05:18:48.498Z,57.20
2018-03-07T05:19:48.627Z,54.70
2018-03-07T05:20:48.780Z,53.30
2018-03-07T05:21:48.935Z,51.50
2018-03-07T05:22:49.087Z,52.90
2018-03-07T05:23:49.244Z,50.50
2018-03-07T05:24:49.402Z,53.10
2018-03-07T05:25:49.550Z,52.30
2018-03-07T05:26:49.710Z,54.80
2018-03-07T05:27:49.859Z,52.50
2018-03-07T05:28:50.013Z,54.80
2018-03-07T05:29:50.167Z,54.80
2018-03-07T05:30:50.328Z,54.50
2018-03-07T05:31:50.484Z,53.10
2018-03-07T05:32:50.634Z,55.20
2018-03-07T05:33:50.802Z,54.40
2018-03-07T05:34:50.942Z,54.40
2018-03-07T05:35:51.095Z,52.70
2018-03-07T05:36:51.246Z,54.60
2018-03-07T05:37:51.410Z,50.50
2018-03-07T05:38:51.555Z,50.70
2018-03-07T05:39:51.712Z,51.20
2018-03-07T05:40:51.881Z,55.20
2018-03-07T05:41:52.016Z,54.40
2018-03-07T05:42:52.171Z,55.40
2018-03-07T05:43:52.329Z,49.50
2018-03-07T05:44:52.481Z,50.90
2018-03-07T05:45:52.637Z,54.60
2018-03-07T05:46:52.797Z,52.00
2018-03-07T05:47:52.956Z,56.50
2018-03-07T05:48:53.103Z,54.00
2018-03-07T05:49:53.265Z,55.00
2018-03-07T05:50:53.410Z,52.00
2018-03-07T05:51:53.568Z,51.80
2018-03-07T05:52:53.717Z,58.00
2018-03-07T05:53:53.876Z,58.20
2018-03-07T05:54:54.031Z,55.20
2018-03-07T05:55:54.192Z,54.20
2018-03-07T05:56:54.349Z,55.90
2018-03-07T05:57:54.501Z,57.30
2018-03-07T05:58:54.666Z,55.60
2018-03-07T05:59:54.807Z,61.40
2018-03-07T06:00:54.961Z,55.70
2018-03-07T06:01:55.113Z,56.80
2018-03-07T06:02:55.270Z,61.40
2018-03-07T06:03:55.424Z,59.00
2018-03-07T06:04:55.578Z,57.60
2018-03-07T06:05:55.778Z,59.10
2018-03-07T06:06:55.885Z,59.90
2018-03-07T06:07:56.036Z,57.30
2018-03-07T06:08:56.195Z,58.30
2018-03-07T06:09:56.344Z,55.70
2018-03-07T06:10:56.527Z,55.30
2018-03-07T06:11:56.645Z,58.60
2018-03-07T06:12:56.809Z,54.70
2018-03-07T06:13:56.953Z,57.00
2018-03-07T06:14:57.145Z,57.30
2018-03-07T06:15:57.251Z,53.50
2018-03-07T06:16:57.414Z,55.30
2018-03-07T06:17:57.573Z,59.80
2018-03-07T06:18:57.723Z,60.80
2018-03-07T06:19:57.886Z,63.90
2018-03-07T06:20:58.030Z,63.50
2018-03-07T06:21:58.189Z,64.60
2018-03-07T06:22:58.340Z,69.80
2018-03-07T06:23:58.498Z,70.30
2018-03-07T06:24:58.650Z,75.20
2018-03-07T06:25:58.809Z,76.00
2018-03-07T06:26:58.959Z,77.50
2018-03-07T06:27:59.118Z,70.90
2018-03-07T06:28:59.280Z,71.70
2018-03-07T06:29:59.424Z,70.10
2018-03-07T06:30:59.580Z,67.30
2018-03-07T06:31:59.735Z,72.50
2018-03-07T06:32:59.888Z,82.00
2018-03-07T06:34:00.041Z,76.50
2018-03-07T06:35:00.209Z,74.10
2018-03-07T06:36:00.360Z,66.60
2018-03-07T06:37:00.516Z,62.90
2018-03-07T06:38:00.677Z,66.50
2018-03-07T06:39:00.822Z,77.50
2018-03-07T06:40:00.974Z,67.50
2018-03-07T06:41:01.116Z,67.70
2018-03-07T06:42:01.281Z,67.40
2018-03-07T06:43:01.439Z,72.90
2018-03-07T06:44:01.607Z,75.80
2018-03-07T06:45:01.758Z,78.00
2018-03-07T06:46:01.909Z,76.50
2018-03-07T06:47:02.060Z,87.70
2018-03-07T06:48:02.214Z,78.90
2018-03-07T06:49:02.386Z,72.70
2018-03-07T06:50:02.527Z,81.40
2018-03-07T06:51:02.682Z,89.90
2018-03-07T06:52:02.833Z,79.90
2018-03-07T06:53:03.066Z,76.70
2018-03-07T06:54:03.170Z,75.60
2018-03-07T06:55:03.326Z,78.70
2018-03-07T06:56:03.473Z,77.70
2018-03-07T06:57:03.640Z,75.70
2018-03-07T06:58:03.808Z,78.20
2018-03-07T06:59:03.950Z,84.50
2018-03-07T07:00:04.452Z,100.00
2018-03-07T07:01:04.330Z,92.30
2018-03-07T07:02:04.494Z,84.30
2018-03-07T07:03:04.645Z,95.00
2018-03-07T07:04:04.802Z,90.50
2018-03-07T07:05:04.963Z,77.70
2018-03-07T07:06:05.128Z,81.70
2018-03-07T07:07:05.285Z,84.00
2018-03-07T07:08:05.433Z,89.10
2018-03-07T07:09:05.587Z,86.70
2018-03-07T07:10:05.744Z,88.50
2018-03-07T07:11:05.903Z,82.30
2018-03-07T07:12:06.055Z,87.80
2018-03-07T07:13:06.201Z,98.90
2018-03-07T07:14:06.361Z,81.90
2018-03-07T07:15:06.512Z,80.10
2018-03-07T07:16:06.659Z,87.20
2018-03-07T07:17:06.812Z,92.10
2018-03-07T07:18:06.988Z,81.30
2018-03-07T07:19:07.135Z,163.10
2018-03-07T07:20:07.290Z,85.80
2018-03-07T07:21:07.448Z,90.10
2018-03-07T07:22:07.677Z,96.60
2018-03-07T07:23:07.771Z,122.40
2018-03-07T07:24:07.930Z,83.40
2018-03-07T07:25:08.078Z,79.90
2018-03-07T07:26:08.239Z,74.20
2018-03-07T07:27:08.397Z,71.50
2018-03-07T07:28:08.545Z,72.60
2018-03-07T07:29:08.702Z,72.20
2018-03-07T07:30:08.862Z,71.30
2018-03-07T07:31:09.002Z,79.90
2018-03-07T07:32:09.156Z,90.10
2018-03-07T07:33:09.311Z,70.90
2018-03-07T07:34:09.469Z,75.60
2018-03-07T07:35:09.614Z,81.80
2018-03-07T07:36:09.770Z,78.30
2018-03-07T07:37:09.922Z,82.10
2018-03-07T07:38:10.079Z,87.10
2018-03-07T07:39:10.230Z,86.80
2018-03-07T07:40:10.388Z,72.90
2018-03-07T07:41:10.543Z,79.70
2018-03-07T07:42:10.689Z,84.00
2018-03-07T07:43:10.845Z,77.20
2018-03-07T07:44:10.995Z,75.60
2018-03-07T07:45:11.151Z,88.20
2018-03-07T07:46:11.306Z,78.10
2018-03-07T07:47:11.468Z,69.40
2018-03-07T07:48:11.630Z,74.60
2018-03-07T07:49:11.768Z,75.50
2018-03-07T07:50:11.920Z,76.60
2018-03-07T07:51:12.078Z,83.00
2018-03-07T07:52:12.234Z,95.20
2018-03-07T07:53:12.392Z,149.60
2018-03-07T07:54:12.565Z,82.60
2018-03-07T07:55:12.692Z,94.40
2018-03-07T07:56:12.852Z,124.50
2018-03-07T07:57:13.021Z,203.20
2018-03-07T07:58:13.161Z,164.30
2018-03-07T07:59:13.317Z,127.10
2018-03-07T08:00:13.493Z,90.70
2018-03-07T08:01:13.638Z,64.30
2018-03-07T08:02:13.790Z,62.80
2018-03-07T08:03:13.946Z,79.80
2018-03-07T08:04:14.103Z,81.70
2018-03-07T08:05:14.265Z,87.30
2018-03-07T08:06:14.416Z,80.10
2018-03-07T08:07:14.581Z,83.10
2018-03-07T08:08:14.735Z,83.80
2018-03-07T08:09:14.885Z,87.10
2018-03-07T08:10:15.042Z,84.40
2018-03-07T08:11:15.195Z,78.80
2018-03-07T08:12:15.351Z,72.70
2018-03-07T08:13:15.508Z,62.50
2018-03-07T08:14:15.666Z,64.60
2018-03-07T08:15:15.818Z,62.30
2018-03-07T08:16:15.981Z,61.60
2018-03-07T08:17:16.144Z,62.60
2018-03-07T08:18:16.365Z,68.10
2018-03-07T08:19:16.459Z,64.50
2018-03-07T08:20:17.005Z,67.20
2018-03-07T08:21:17.172Z,81.40
2018-03-07T08:22:16.968Z,84.00
2018-03-07T08:23:17.129Z,79.90
2018-03-07T08:24:17.286Z,71.00
2018-03-07T08:25:17.446Z,72.40
2018-03-07T08:26:17.598Z,92.30
2018-03-07T08:27:17.767Z,91.10
2018-03-07T08:28:17.912Z,78.70
2018-03-07T08:29:18.073Z,86.10
2018-03-07T08:30:18.214Z,77.40
2018-03-07T08:31:18.378Z,79.10
2018-03-07T08:32:18.523Z,76.10
2018-03-07T08:33:18.681Z,89.90
2018-03-07T08:34:18.838Z,87.40
2018-03-07T08:35:18.997Z,74.60
2018-03-07T08:36:19.145Z,77.20
2018-03-07T08:37:19.306Z,76.60
2018-03-07T08:38:19.459Z,74.60
2018-03-07T08:39:19.627Z,69.60
2018-03-07T08:40:19.790Z,54.70
2018-03-07T08:41:19.946Z,54.40
2018-03-07T08:42:20.100Z,54.90
2018-03-07T08:43:20.276Z,56.80
2018-03-07T08:44:20.433Z,67.70
2018-03-07T08:45:20.594Z,54.60
2018-03-07T08:46:20.749Z,53.70
2018-03-07T08:47:20.910Z,53.20
2018-03-07T08:48:21.064Z,61.80
2018-03-07T08:49:21.234Z,59.00
2018-03-07T08:50:21.388Z,58.00
2018-03-07T08:51:21.553Z,59.20
2018-03-07T08:52:21.709Z,61.90
2018-03-07T08:53:21.878Z,59.50
2018-03-07T08:54:22.029Z,61.50
2018-03-07T08:55:22.198Z,69.80
2018-03-07T08:56:22.355Z,60.00
2018-03-07T08:57:22.518Z,65.90
2018-03-07T08:58:22.675Z,68.70
2018-03-07T08:59:22.841Z,77.50
2018-03-07T09:00:23.001Z,86.90
2018-03-07T09:01:23.146Z,66.90
2018-03-07T09:02:23.313Z,65.60
2018-03-07T09:03:23.452Z,66.00
2018-03-07T09:04:23.609Z,66.70
2018-03-07T09:05:23.774Z,64.80
2018-03-07T09:06:23.934Z,65.00
2018-03-07T09:07:24.091Z,60.70
2018-03-07T09:08:24.249Z,67.90
2018-03-07T09:09:24.405Z,56.60
2018-03-07T09:10:24.561Z,63.50
2018-03-07T09:11:24.716Z,61.20
2018-03-07T09:12:24.878Z,61.90
2018-03-07T09:13:25.035Z,64.90
2018-03-07T09:14:25.199Z,56.20
2018-03-07T09:15:25.358Z,63.20
2018-03-07T09:16:25.523Z,61.70
2018-03-07T09:17:25.694Z,72.10
2018-03-07T09:18:25.825Z,74.90
2018-03-07T09:19:25.989Z,67.80
2018-03-07T09:20:26.142Z,64.10
2018-03-07T09:21:26.297Z,59.90
2018-03-07T09:22:26.454Z,63.60
2018-03-07T09:23:26.613Z,63.20
2018-03-07T09:24:26.771Z,61.10
2018-03-07T09:25:26.928Z,63.10
2018-03-07T09:26:27.300Z,66.60
2018-03-07T09:27:27.225Z,73.90
2018-03-07T09:28:27.393Z,72.40
2018-03-07T09:29:27.534Z,74.70
2018-03-07T09:30:27.689Z,74.70
2018-03-07T09:31:27.853Z,63.70
2018-03-07T09:32:28.008Z,61.70
2018-03-07T09:33:28.170Z,62.70
2018-03-07T09:34:28.321Z,60.30
2018-03-07T09:35:28.483Z,65.80
2018-03-07T09:36:28.638Z,68.90
2018-03-07T09:37:28.797Z,60.60
2018-03-07T09:38:28.956Z,64.10
2018-03-07T09:39:29.117Z,60.20
2018-03-07T09:40:29.280Z,62.40
2018-03-07T09:41:29.436Z,60.50
2018-03-07T09:42:29.586Z,65.50
2018-03-07T09:43:29.755Z,66.80
2018-03-07T09:44:29.895Z,61.80
2018-03-07T09:45:30.065Z,62.40
2018-03-07T09:46:30.213Z,63.40
2018-03-07T09:47:30.390Z,70.80
2018-03-07T09:48:30.537Z,60.50
2018-03-07T09:49:30.698Z,65.40
2018-03-07T09:50:30.907Z,64.70
2018-03-07T09:51:31.011Z,69.80
2018-03-07T09:52:31.173Z,68.00
2018-03-07T09:53:31.325Z,65.10
2018-03-07T09:54:31.483Z,60.40
2018-03-07T09:55:31.646Z,62.80
2018-03-07T09:56:31.881Z,59.60
2018-03-07T09:57:31.962Z,61.80
2018-03-07T09:58:32.117Z,69.70
2018-03-07T09:59:32.367Z,74.20
2018-03-07T10:00:32.440Z,66.10
2018-03-07T10:01:32.548Z,73.70
2018-03-07T10:02:32.692Z,78.20
2018-03-07T10:03:32.861Z,61.50
2018-03-07T10:04:33.008Z,60.70
2018-03-07T10:05:33.170Z,62.90
2018-03-07T10:06:33.319Z,57.90
2018-03-07T10:07:33.482Z,57.20
2018-03-07T10:08:33.641Z,61.00
2018-03-07T10:09:33.800Z,60.10
2018-03-07T10:10:33.960Z,65.00
2018-03-07T10:11:34.121Z,62.90
2018-03-07T10:12:34.274Z,63.20
2018-03-07T10:13:34.479Z,50.60
2018-03-07T10:14:34.588Z,51.00
2018-03-07T10:15:34.764Z,51.50
2018-03-07T10:16:34.938Z,49.10
2018-03-07T10:17:35.081Z,49.40
2018-03-07T10:18:35.240Z,46.80
2018-03-07T10:19:35.400Z,45.00
2018-03-07T10:20:35.553Z,48.60
2018-03-07T10:21:35.720Z,45.80
2018-03-07T10:22:35.871Z,46.90
2018-03-07T10:23:36.035Z,46.20
2018-03-07T10:24:36.197Z,45.30
2018-03-07T10:25:36.358Z,43.60
2018-03-07T10:26:36.530Z,47.40
2018-03-07T10:27:36.679Z,46.60
2018-03-07T10:28:36.841Z,44.20
2018-03-07T10:29:36.987Z,47.00
2018-03-07T10:30:37.231Z,42.60
2018-03-07T10:31:37.263Z,43.30
2018-03-07T10:32:37.430Z,43.80
2018-03-07T10:33:37.590Z,43.90
2018-03-07T10:34:37.763Z,44.20
2018-03-07T10:35:37.916Z,43.70
2018-03-07T10:36:38.080Z,41.80
2018-03-07T10:37:38.240Z,40.30
2018-03-07T10:38:38.400Z,45.40
2018-03-07T10:39:38.582Z,38.50
2018-03-07T10:40:38.721Z,41.00
2018-03-07T10:41:38.881Z,38.90
2018-03-07T10:42:39.042Z,38.90
2018-03-07T10:43:39.199Z,37.90
2018-03-07T10:44:39.362Z,41.70
2018-03-07T10:45:39.523Z,39.70
2018-03-07T10:46:39.693Z,36.20
2018-03-07T10:47:39.837Z,39.30
2018-03-07T10:48:40.004Z,36.10
2018-03-07T10:49:40.164Z,38.80
2018-03-07T10:50:40.325Z,36.10
2018-03-07T10:51:40.481Z,36.10
2018-03-07T10:52:40.645Z,38.70
2018-03-07T10:53:40.799Z,36.70
2018-03-07T10:54:40.990Z,35.20
2018-03-07T10:55:41.140Z,35.20
2018-03-07T10:56:41.299Z,36.40
2018-03-07T10:57:41.457Z,33.70
2018-03-07T10:58:41.616Z,37.60
2018-03-07T10:59:41.780Z,39.80
2018-03-07T11:00:41.935Z,35.30
2018-03-07T11:01:42.101Z,36.20
2018-03-07T11:02:42.261Z,34.00
2018-03-07T11:03:42.420Z,31.70
2018-03-07T11:04:42.580Z,28.90
2018-03-07T11:05:42.735Z,26.60
2018-03-07T11:06:42.900Z,28.00
2018-03-07T11:07:43.059Z,27.10
2018-03-07T11:08:43.220Z,27.90
2018-03-07T11:09:43.385Z,27.30
2018-03-07T11:11:19.533Z,25.00
2018-03-07T11:11:43.666Z,25.70
2018-03-07T11:12:43.798Z,21.50
2018-03-07T11:13:43.976Z,17.30
2018-03-07T11:14:44.136Z,17.70
2018-03-07T11:15:44.341Z,18.50
2018-03-07T11:16:44.507Z,18.00
2018-03-07T11:17:44.664Z,18.20
2018-03-07T11:18:44.825Z,18.80
2018-03-07T11:19:44.990Z,16.70
2018-03-07T11:20:45.147Z,16.40
2018-03-07T11:21:45.329Z,15.10
2018-03-07T11:22:45.454Z,14.40
2018-03-07T11:23:45.620Z,14.70
2018-03-07T11:24:45.768Z,16.30
2018-03-07T11:25:45.941Z,14.70
2018-03-07T11:26:46.103Z,14.20
2018-03-07T11:27:46.257Z,12.70
2018-03-07T11:28:46.411Z,13.70
2018-03-07T11:29:46.569Z,12.80
2018-03-07T11:30:46.726Z,12.80
2018-03-07T11:31:46.888Z,13.60
2018-03-07T11:32:47.046Z,13.10
2018-03-07T11:33:47.213Z,12.70
2018-03-07T11:34:47.357Z,11.50
2018-03-07T11:35:47.509Z,12.60
2018-03-07T11:36:47.670Z,12.30
2018-03-07T11:37:47.831Z,12.10
2018-03-07T11:38:47.993Z,11.60
2018-03-07T11:39:48.200Z,12.30
2018-03-07T11:40:48.316Z,11.60
2018-03-07T11:41:48.477Z,12.50
2018-03-07T11:42:48.635Z,12.50
2018-03-07T11:43:48.796Z,12.60
2018-03-07T11:44:48.956Z,11.50
2018-03-07T11:45:49.117Z,12.60
2018-03-07T11:46:49.277Z,12.30
2018-03-07T11:47:49.437Z,12.30
2018-03-07T11:48:49.590Z,12.40
2018-03-07T11:49:49.758Z,12.40
2018-03-07T11:50:49.918Z,12.50
2018-03-07T11:51:50.082Z,13.20
2018-03-07T11:52:50.242Z,12.80
2018-03-07T11:53:50.401Z,14.00
2018-03-07T11:54:50.561Z,14.00
2018-03-07T11:55:50.724Z,13.60
2018-03-07T11:56:50.882Z,15.00
2018-03-07T11:57:51.052Z,13.60
2018-03-07T11:58:51.209Z,14.70
2018-03-07T11:59:51.370Z,14.20
2018-03-07T12:00:51.538Z,14.30
2018-03-07T12:01:51.719Z,14.00
2018-03-07T12:02:51.867Z,14.00
2018-03-07T12:03:52.010Z,15.10
2018-03-07T12:04:52.169Z,15.90
2018-03-07T12:05:52.326Z,15.80
2018-03-07T12:06:52.480Z,15.10
2018-03-07T12:07:52.638Z,16.20
2018-03-07T12:08:52.798Z,15.70
2018-03-07T12:09:52.954Z,16.50
2018-03-07T12:10:53.121Z,17.20
2018-03-07T12:11:53.275Z,17.00
2018-03-07T12:12:53.442Z,17.50
2018-03-07T12:13:53.588Z,16.50
2018-03-07T12:14:53.747Z,17.70
2018-03-07T12:15:53.958Z,16.20
2018-03-07T12:16:54.055Z,17.10
2018-03-07T12:18:22.057Z,16.90
2018-03-07T12:18:54.425Z,17.20
2018-03-07T12:19:54.577Z,17.80
2018-03-07T12:20:54.733Z,17.40
2018-03-07T12:21:54.902Z,18.40
2018-03-07T12:22:55.062Z,17.60
2018-03-07T12:23:55.223Z,18.20
2018-03-07T12:24:55.386Z,17.20
2018-03-07T12:25:55.549Z,17.10
2018-03-07T12:26:55.710Z,16.90
2018-03-07T12:27:55.869Z,16.60
2018-03-07T12:28:56.024Z,16.80
2018-03-07T12:29:56.187Z,16.50
2018-03-07T12:30:56.348Z,16.20
2018-03-07T12:31:56.496Z,15.70
2018-03-07T12:32:56.717Z,15.20
2018-03-07T12:33:56.802Z,14.80
2018-03-07T12:34:56.960Z,18.10
2018-03-07T12:35:57.119Z,14.90
2018-03-07T12:36:57.282Z,14.60
2018-03-07T12:37:57.431Z,13.90
2018-03-07T12:38:57.619Z,16.00
2018-03-07T12:39:57.773Z,14.40
2018-03-07T12:40:57.942Z,14.30
2018-03-07T12:41:58.123Z,14.80
2018-03-07T12:42:58.283Z,14.80
2018-03-07T12:43:58.916Z,15.20
2018-03-07T12:44:58.608Z,13.90
2018-03-07T12:45:58.773Z,17.00
2018-03-07T12:46:58.968Z,13.80
2018-03-07T12:47:59.080Z,14.20
2018-03-07T12:48:59.233Z,13.40
2018-03-07T12:49:59.404Z,13.60
2018-03-07T12:50:59.563Z,14.30
2018-03-07T12:51:59.731Z,14.80
2018-03-07T12:52:59.894Z,13.10
2018-03-07T12:54:00.049Z,12.20
2018-03-07T12:55:00.207Z,13.10
2018-03-07T12:56:00.366Z,12.70
2018-03-07T12:57:00.525Z,12.40